Time;durP1;ratioP1;P1;durP2;ratioP2;P2;SDS_P1;SDS_P2;PMS_P1;PMS_P2;Temp;Humidity;BMP_temperature;BMP_pressure;BME280_temperature;BME280_humidity;BME280_pressure;Samples;Min_cycle;Max_cycle;Signal;HPM_P1;HPM_P2
2023/08/19 00:00:58;;;;;;;8.27;6.90;;;;;;;23.37;100.00;101385.56;2521847;23;20271;-65
2023/08/19 00:01:59;;;;;;;11.87;7.30;;;;;;;23.34;100.00;101383.75;2521560;23;20203;-65
2023/08/19 00:02:59;;;;;;;12.43;7.30;;;;;;;23.32;100.00;101377.81;2521056;23;20183;-66
2023/08/19 00:04:00;;;;;;;10.17;7.33;;;;;;;;;;2521650;23;20230;-65
2023/08/19 00:05:00;;;;;;;10.73;7.33;;;;;;;23.27;100.00;101392.69;2521725;23;20159;-65
2023/08/19 00:06:06;;;;;;;9.77;7.23;;;;;;;23.18;100.00;101373.84;2521501;23;20158;-65
2023/08/19 00:07:07;;;;;;;9.33;7.33;;;;;;;23.23;100.00;101392.16;2521552;23;20155;-66
2023/08/19 00:08:07;;;;;;;9.40;7.33;;;;;;;23.23;100.00;101375.94;2521354;23;20638;-65
2023/08/19 00:09:09;;;;;;;12.33;7.13;;;;;;;23.13;100.00;101373.78;2521508;23;20154;-66
2023/08/19 00:10:10;;;;;;;9.37;7.40;;;;;;;22.92;100.00;101335.56;2521400;23;20154;-67
2023/08/19 00:11:10;;;;;;;8.97;7.80;;;;;;;23.15;100.00;101388.97;2521478;23;20429;-66
2023/08/19 00:12:10;;;;;;;10.60;6.47;;;;;;;23.14;100.00;101389.47;2520918;23;20151;-65
2023/08/19 00:13:11;;;;;;;7.60;6.90;;;;;;;22.17;100.00;101244.66;2521398;23;20517;-65
2023/08/19 00:14:12;;;;;;;9.53;7.10;;;;;;;23.10;100.00;101394.56;2521621;23;20162;-65
2023/08/19 00:15:12;;;;;;;8.93;7.10;;;;;;;23.10;100.00;101397.41;2521353;23;20162;-65
2023/08/19 00:16:13;;;;;;;9.00;8.00;;;;;;;23.09;100.00;101395.84;2521491;23;20614;-65
2023/08/19 00:17:13;;;;;;;11.10;8.07;;;;;;;23.02;100.00;101385.00;2521493;23;20210;-65
2023/08/19 00:18:14;;;;;;;9.33;7.97;;;;;;;23.03;100.00;101401.44;2521342;23;20174;-65
2023/08/19 00:19:14;;;;;;;15.40;7.83;;;;;;;23.01;100.00;101401.19;2521434;23;20158;-65
2023/08/19 00:20:14;;;;;;;8.90;7.87;;;;;;;22.99;100.00;101409.38;2521230;23;20159;-65
2023/08/19 00:21:15;;;;;;;8.93;8.10;;;;;;;22.96;100.00;101395.47;2521374;23;20151;-65
2023/08/19 00:22:17;;;;;;;10.83;7.77;;;;;;;22.98;100.00;101398.56;2521407;23;20151;-65
2023/08/19 00:23:23;;;;;;;10.43;7.50;;;;;;;22.23;100.00;101287.84;2521387;23;20331;-66
2023/08/19 00:24:24;;;;;;;10.27;7.40;;;;;;;22.97;100.00;101400.63;2521537;23;20482;-66
2023/08/19 00:25:25;;;;;;;8.30;7.40;;;;;;;22.93;100.00;101404.94;2521300;23;20175;-65
2023/08/19 00:26:26;;;;;;;8.53;7.57;;;;;;;22.91;100.00;101410.31;2521264;23;20594;-65
2023/08/19 00:27:26;;;;;;;12.33;7.80;;;;;;;22.91;100.00;101408.28;2521451;23;20558;-65
2023/08/19 00:28:26;;;;;;;10.93;8.10;;;;;;;22.85;100.00;101403.81;2521417;23;20498;-65
2023/08/19 00:29:27;;;;;;;9.00;7.60;;;;;;;22.94;100.00;101412.16;2521106;23;20170;-65
2023/08/19 00:30:27;;;;;;;11.77;7.60;;;;;;;22.93;100.00;101402.13;2521392;23;20147;-65
2023/08/19 00:31:28;;;;;;;10.13;7.87;;;;;;;22.92;100.00;101400.56;2521405;23;20609;-65
2023/08/19 00:32:30;;;;;;;10.53;7.37;;;;;;;22.76;100.00;101372.91;2521300;23;20561;-65
2023/08/19 00:33:30;;;;;;;12.50;7.30;;;;;;;22.31;100.00;101317.19;2521464;23;20147;-65
2023/08/19 00:34:31;;;;;;;9.33;7.20;;;;;;;22.84;100.00;101396.63;2521198;23;20210;-65
2023/08/19 00:35:32;;;;;;;9.80;7.80;;;;;;;22.90;100.00;101403.13;2521087;23;20182;-64
2023/08/19 00:36:32;;;;;;;10.30;7.83;;;;;;;22.87;100.00;101402.06;2521387;23;20148;-65
2023/08/19 00:37:35;;;;;;;8.47;7.10;;;;;;;22.90;100.00;101397.47;2521408;23;20235;-65
2023/08/19 00:38:35;;;;;;;8.33;7.53;;;;;;;22.90;100.00;101398.25;2521472;23;20210;-65
2023/08/19 00:39:36;;;;;;;10.77;7.60;;;;;;;22.65;100.00;101361.50;2521090;23;20155;-65
2023/08/19 00:40:36;;;;;;;11.03;7.40;;;;;;;22.93;100.00;101397.22;2520990;23;20202;-65
2023/08/19 00:41:37;;;;;;;8.43;7.40;;;;;;;22.81;100.00;101375.00;2521390;23;20621;-66
2023/08/19 00:42:38;;;;;;;9.80;7.40;;;;;;;22.98;100.00;101409.88;2521560;23;20544;-65
2023/08/19 00:43:38;;;;;;;10.53;7.33;;;;;;;22.90;100.00;101389.75;2521216;23;20147;-65
2023/08/19 00:44:39;;;;;;;10.87;7.63;;;;;;;23.02;100.00;101408.38;2521206;23;20155;-65
2023/08/19 00:45:44;;;;;;;9.23;7.53;;;;;;;22.71;100.00;101360.28;2520810;23;20155;-65
2023/08/19 00:46:44;;;;;;;7.67;6.87;;;;;;;23.00;100.00;101405.28;2521454;23;20234;-65
2023/08/19 00:47:45;;;;;;;10.37;7.50;;;;;;;22.92;100.00;101389.28;2521436;23;20598;-65
2023/08/19 00:48:46;;;;;;;9.63;7.13;;;;;;;22.63;100.00;101345.03;2521471;23;20155;-65
2023/08/19 00:49:48;;;;;;;10.13;7.23;;;;;;;23.03;100.00;101404.28;2520854;23;20427;-65
2023/08/19 00:50:49;;;;;;;12.03;7.60;;;;;;;23.05;100.00;101406.59;2521359;23;20166;-65
2023/08/19 00:51:50;;;;;;;7.80;6.50;;;;;;;22.30;100.00;101295.84;2521172;23;20540;-65
2023/08/19 00:52:50;;;;;;;9.70;7.10;;;;;;;22.95;100.00;101408.84;2521259;23;20151;-65
2023/08/19 00:53:52;;;;;;;7.53;6.83;;;;;;;22.50;100.00;101347.47;2521310;23;20624;-67
2023/08/19 00:54:53;;;;;;;10.13;7.07;;;;;;;22.94;100.00;101412.94;2520449;23;20294;-65
2023/08/19 00:55:53;;;;;;;12.30;7.17;;;;;;;22.98;100.00;101416.28;2520899;23;20616;-65
2023/08/19 00:56:55;;;;;;;9.23;7.03;;;;;;;23.00;100.00;101412.97;2521296;23;20155;-65
2023/08/19 00:57:56;;;;;;;11.30;7.03;;;;;;;23.00;100.00;101407.31;2508618;23;20163;-65
2023/08/19 00:58:56;;;;;;;8.93;7.00;;;;;;;23.01;100.00;101414.53;2508816;23;20174;-65
2023/08/19 00:59:57;;;;;;;9.57;7.47;;;;;;;22.97;100.00;101417.56;2521162;23;20163;-66
2023/08/19 01:00:57;;;;;;;10.17;6.87;;;;;;;22.98;100.00;101407.81;2521235;23;20155;-65
2023/08/19 01:01:58;;;;;;;8.10;7.20;;;;;;;22.98;100.00;101407.06;2521342;23;20152;-65
2023/08/19 01:02:59;;;;;;;8.53;7.07;;;;;;;22.99;100.00;101419.91;2521001;23;20187;-65
2023/08/19 01:03:59;;;;;;;9.57;7.00;;;;;;;23.01;100.00;101406.84;2521396;23;20596;-65
2023/08/19 01:05:00;;;;;;;12.20;7.37;;;;;;;23.02;100.00;101408.38;2521171;23;20625;-65
2023/08/19 01:06:06;;;;;;;11.70;7.10;;;;;;;23.00;100.00;101408.09;2520832;23;20182;-65
2023/08/19 01:07:23;;;;;;;9.37;6.80;;;;;;;23.02;100.00;101413.28;2520383;23;20165;-66
2023/08/19 01:08:31;;;;;;;8.17;6.80;;;;;;;23.01;100.00;101404.00;2520870;23;20186;-65
2023/08/19 01:09:52;;;;;;;7.93;6.73;;;;;;;23.02;100.00;101422.50;2520845;23;20139;-65
2023/08/19 01:11:05;;;;;;;10.43;6.80;;;;;;;23.04;100.00;101405.06;2521322;23;20194;-65
2023/08/19 01:12:23;;;;;;;7.87;6.73;;;;;;;23.03;100.00;101404.28;2521214;23;20143;-65
2023/08/19 01:13:30;;;;;;;8.23;6.97;;;;;;;23.02;100.00;101402.72;2521089;23;20139;-65
2023/08/19 01:14:43;;;;;;;9.80;6.70;;;;;;;22.97;100.00;101389.31;2521347;23;20170;-65
2023/08/19 01:15:55;;;;;;;9.50;6.97;;;;;;;23.01;100.00;101395.53;2520756;23;20139;-65
2023/08/19 01:16:56;;;;;;;10.00;7.07;;;;;;;23.01;100.00;101397.56;2521304;23;20202;-65
2023/08/19 01:17:58;;;;;;;10.90;7.90;;;;;;;22.99;100.00;101388.81;2521209;23;20151;-66
2023/08/19 01:19:00;;;;;;;9.07;7.13;;;;;;;23.00;100.00;101387.53;2521237;23;20151;-66
2023/08/19 01:20:03;;;;;;;11.23;7.50;;;;;;;22.98;100.00;101387.28;2521065;23;20502;-65
2023/08/19 01:21:04;;;;;;;8.73;7.10;;;;;;;22.97;100.00;101386.47;2520785;23;20248;-65
2023/08/19 01:22:07;;;;;;;9.03;7.27;;;;;;;22.19;100.00;101284.44;2521252;23;20151;-66
2023/08/19 01:23:18;;;;;;;11.33;7.57;;;;;;;22.37;100.00;101312.38;2520665;23;20329;-65
2023/08/19 01:24:22;;;;;;;8.43;6.90;;;;;;;22.87;100.00;101390.00;2521326;23;20161;-66
2023/08/19 01:25:23;;;;;;;11.07;7.13;;;;;;;22.81;100.00;101387.09;2520937;23;20155;-66
2023/08/19 01:26:23;;;;;;;9.43;7.00;;;;;;;22.35;100.00;101334.69;2521099;23;20501;-65
2023/08/19 01:27:26;;;;;;;9.97;7.40;;;;;;;22.79;100.00;101405.81;2521081;23;20174;-65
2023/08/19 01:28:26;;;;;;;12.33;7.17;;;;;;;22.71;100.00;101413.97;2521618;23;20147;-65
2023/08/19 01:29:26;;;;;;;9.80;7.60;;;;;;;22.61;100.00;101418.22;2521154;23;20155;-65
2023/08/19 01:30:28;;;;;;;11.17;8.53;;;;;;;22.37;100.00;101436.63;2521009;23;20614;-65
2023/08/19 01:31:29;;;;;;;9.33;7.97;;;;;;;22.40;100.00;101430.78;2521283;23;20147;-65
2023/08/19 01:32:29;;;;;;;13.13;7.80;;;;;;;22.44;100.00;101420.06;2520893;23;20171;-66
2023/08/19 01:33:31;;;;;;;11.57;8.20;;;;;;;22.51;100.00;101413.22;2521094;23;20598;-65
2023/08/19 01:34:32;;;;;;;9.33;8.00;;;;;;;22.51;100.00;101414.00;2521226;23;20238;-65
2023/08/19 01:35:49;;;;;;;10.63;7.80;;;;;;;22.57;100.00;101412.00;2520616;23;20154;-65
2023/08/19 01:36:56;;;;;;;10.13;7.60;;;;;;;22.58;100.00;101413.56;2521030;23;20147;-65
2023/08/19 01:38:00;;;;;;;9.00;7.57;;;;;;;22.62;100.00;101414.13;2520841;23;20162;-65
2023/08/19 01:39:08;;;;;;;9.70;7.93;;;;;;;22.57;100.00;101397.88;2521086;23;20505;-65
2023/08/19 01:40:11;;;;;;;9.70;7.70;;;;;;;22.69;100.00;101412.91;2521142;23;20594;-65
2023/08/19 01:41:14;;;;;;;8.20;7.40;;;;;;;22.73;100.00;101419.13;2521114;23;20246;-65
2023/08/19 01:42:17;;;;;;;13.90;7.70;;;;;;;22.64;100.00;101410.81;2521178;23;20617;-64
2023/08/19 01:43:18;;;;;;;9.90;7.30;;;;;;;22.69;100.00;101415.72;2520976;23;20266;-65
2023/08/19 01:44:20;;;;;;;9.03;7.17;;;;;;;22.68;100.00;101423.41;2521061;23;20170;-65
2023/08/19 01:45:21;;;;;;;11.07;7.30;;;;;;;21.95;100.00;101314.97;2520807;23;20151;-66
2023/08/19 01:46:22;;;;;;;9.90;7.53;;;;;;;22.36;100.00;101364.50;2521106;23;20209;-66
2023/08/19 01:47:22;;;;;;;8.90;7.47;;;;;;;22.71;100.00;101424.47;2520851;23;20148;-65
2023/08/19 01:48:23;;;;;;;8.33;7.30;;;;;;;22.74;100.00;101427.09;2521021;23;20617;-64
2023/08/19 01:49:23;;;;;;;8.93;7.27;;;;;;;22.78;100.00;101427.66;2520992;23;20664;-65
2023/08/19 01:50:23;;;;;;;11.00;6.87;;;;;;;22.81;100.00;101425.88;2508251;23;20166;-65
2023/08/19 01:51:24;;;;;;;8.93;7.10;;;;;;;22.83;100.00;101424.09;2508338;23;20542;-66
2023/08/19 01:52:24;;;;;;;8.77;6.90;;;;;;;22.88;100.00;101423.38;2520368;23;20175;-65
2023/08/19 01:53:25;;;;;;;12.87;7.37;;;;;;;22.92;100.00;101423.19;2521327;23;20178;-66
2023/08/19 01:54:25;;;;;;;10.23;7.07;;;;;;;22.95;100.00;101431.44;2520788;23;20155;-65
2023/08/19 01:55:25;;;;;;;14.57;10.57;;;;;;;22.22;100.00;101314.53;2520897;23;20143;-65
2023/08/19 01:56:26;;;;;;;14.30;10.83;;;;;;;22.98;100.00;101427.59;2521118;23;20184;-65
2023/08/19 01:57:27;;;;;;;12.83;8.97;;;;;;;22.99;100.00;101422.75;2520848;23;20151;-65
2023/08/19 01:58:27;;;;;;;12.40;7.13;;;;;;;22.99;100.00;101426.34;2520837;23;20147;-66
2023/08/19 01:59:28;;;;;;;9.10;7.20;;;;;;;22.75;100.00;101382.66;2521098;23;20148;-65
2023/08/19 02:00:28;;;;;;;8.60;6.60;;;;;;;22.85;100.00;101403.81;2521043;23;20175;-65
2023/08/19 02:01:29;;;;;;;9.97;7.80;;;;;;;22.99;100.00;101426.34;2521021;23;20214;-65
2023/08/19 02:02:29;;;;;;;8.07;7.00;;;;;;;23.00;100.00;101421.47;2520939;23;20151;-65
2023/08/19 02:03:30;;;;;;;9.63;7.40;;;;;;;22.97;100.00;101423.22;2521024;23;20175;-65
2023/08/19 02:04:30;;;;;;;9.10;6.80;;;;;;;22.96;100.00;101421.69;2521037;23;20147;-65
2023/08/19 02:05:31;;;;;;;11.83;7.13;;;;;;;22.97;100.00;101422.47;2508160;23;20168;-64
2023/08/19 02:06:33;;;;;;;9.63;7.10;;;;;;;22.94;100.00;101424.25;2507947;23;20511;-66
2023/08/19 02:07:33;;;;;;;8.03;6.70;;;;;;;22.93;100.00;101421.91;2520979;23;20498;-65
2023/08/19 02:08:34;;;;;;;10.67;7.50;;;;;;;22.91;100.00;101430.88;2520835;23;20150;-65
2023/08/19 02:09:34;;;;;;;10.07;7.10;;;;;;;22.88;100.00;101425.47;2520791;23;20609;-65
2023/08/19 02:10:34;;;;;;;9.87;7.73;;;;;;;22.85;100.00;101424.41;2520984;23;20493;-65
2023/08/19 02:11:35;;;;;;;11.47;7.83;;;;;;;22.83;100.00;101424.09;2520779;23;20151;-65
2023/08/19 02:12:35;;;;;;;14.07;7.57;;;;;;;22.82;100.00;101425.38;2521016;23;20147;-65
2023/08/19 02:13:36;;;;;;;12.87;7.90;;;;;;;22.40;100.00;101356.56;2520824;23;20166;-65
2023/08/19 02:14:36;;;;;;;9.83;7.27;;;;;;;22.76;100.00;101421.72;2521029;23;20154;-65
2023/08/19 02:15:37;;;;;;;10.00;7.80;;;;;;;22.73;100.00;101425.53;2520708;23;20210;-67
2023/08/19 02:16:37;;;;;;;14.00;7.60;;;;;;;22.71;100.00;101418.81;2521128;23;20202;-65
2023/08/19 02:17:38;;;;;;;12.93;7.17;;;;;;;22.69;100.00;101427.03;2521048;23;20151;-66
2023/08/19 02:18:38;;;;;;;11.40;7.30;;;;;;;22.66;100.00;101417.50;2521152;23;20174;-65
2023/08/19 02:19:38;;;;;;;11.20;6.93;;;;;;;22.61;100.00;101415.38;2520508;23;20151;-66
2023/08/19 02:20:39;;;;;;;10.93;7.30;;;;;;;22.67;100.00;101421.88;2520721;23;20239;-65
2023/08/19 02:21:39;;;;;;;7.63;6.93;;;;;;;22.69;100.00;101422.19;2521061;23;20154;-65
2023/08/19 02:22:40;;;;;;;10.63;6.80;;;;;;;22.69;100.00;101429.88;2520857;23;20618;-65
2023/08/19 02:23:41;;;;;;;7.90;7.10;;;;;;;22.67;100.00;101426.78;2520843;23;20552;-66
2023/08/19 02:24:41;;;;;;;10.33;6.93;;;;;;;22.64;100.00;101425.72;2521108;23;20229;-65
2023/08/19 02:25:42;;;;;;;11.23;7.17;;;;;;;22.63;100.00;101423.38;2520676;23;20162;-65
2023/08/19 02:26:43;;;;;;;8.93;6.73;;;;;;;22.63;100.00;101426.19;2521005;23;20339;-65
2023/08/19 02:27:50;;;;;;;9.67;7.73;;;;;;;22.63;100.00;101426.19;2096153;28;20568;-65
2023/08/19 02:28:50;;;;;;;8.57;6.80;;;;;;;22.09;100.00;101345.16;2089825;28;20214;-66
2023/08/19 02:29:51;;;;;;;10.40;7.60;;;;;;;22.13;100.00;101352.16;2092784;28;20195;-66
2023/08/19 02:30:51;;;;;;;11.63;7.07;;;;;;;22.63;100.00;101434.69;2092091;28;20271;-65
2023/08/19 02:31:52;;;;;;;11.93;7.37;;;;;;;22.64;100.00;101427.75;2087880;28;20625;-65
2023/08/19 02:32:52;;;;;;;8.20;7.27;;;;;;;22.61;100.00;101428.75;2087495;28;20230;-66
2023/08/19 02:33:53;;;;;;;9.00;7.47;;;;;;;22.55;100.00;101425.84;2088589;28;20180;-65
2023/08/19 02:34:53;;;;;;;9.93;7.07;;;;;;;22.58;100.00;101429.75;2096140;28;20286;-66
2023/08/19 02:35:54;;;;;;;7.73;6.83;;;;;;;22.52;100.00;101428.91;2079909;28;20638;-65
2023/08/19 02:36:54;;;;;;;10.33;6.60;;;;;;;22.07;100.00;101392.88;2085907;28;20654;-65
2023/08/19 02:37:54;;;;;;;13.23;8.00;;;;;;;22.33;100.00;101427.59;2087835;28;20188;-66
2023/08/19 02:38:55;;;;;;;15.77;8.33;;;;;;;22.30;100.00;101428.56;2087675;28;20647;-65
2023/08/19 02:39:55;;;;;;;11.40;7.90;;;;;;;22.29;100.00;101432.66;2087408;28;20676;-65
2023/08/19 02:40:56;;;;;;;11.60;7.43;;;;;;;22.25;100.00;101435.72;2087598;28;20181;-66
2023/08/19 02:41:56;;;;;;;10.30;6.90;;;;;;;22.23;100.00;101435.44;2088415;28;20173;-67
2023/08/19 02:42:57;;;;;;;10.73;7.60;;;;;;;21.43;100.00;101318.81;2096325;28;20267;-65
2023/08/19 02:43:57;;;;;;;10.50;7.17;;;;;;;22.19;100.00;101426.41;2088014;28;20262;-66
2023/08/19 02:44:58;;;;;;;10.43;7.73;;;;;;;22.25;100.00;101446.22;2093719;28;20192;-67
2023/08/19 02:45:58;;;;;;;12.17;7.70;;;;;;;22.17;100.00;101423.31;2090104;28;20222;-66
2023/08/19 02:46:59;;;;;;;12.70;7.87;;;;;;;22.27;100.00;101440.88;2092416;28;20221;-66
2023/08/19 02:47:59;;;;;;;10.00;7.77;;;;;;;22.25;100.00;101441.34;2092727;28;20584;-65
2023/08/19 02:48:59;;;;;;;9.80;7.63;;;;;;;22.22;100.00;101435.94;2089900;28;20593;-65
2023/08/19 02:50:00;;;;;;;8.77;7.77;;;;;;;22.22;100.00;101442.34;2094476;28;20255;-66
2023/08/19 02:51:00;;;;;;;12.00;8.43;;;;;;;22.20;100.00;101446.91;2087761;28;20172;-66
2023/08/19 02:52:01;;;;;;;10.30;8.30;;;;;;;22.19;100.00;101445.38;2087637;28;20318;-65
2023/08/19 02:53:01;;;;;;;9.60;8.03;;;;;;;22.17;100.00;101439.44;2087482;28;20192;-66
2023/08/19 02:54:02;;;;;;;10.10;8.07;;;;;;;22.15;100.00;101448.41;2093938;28;20199;-66
2023/08/19 02:55:02;;;;;;;9.30;8.40;;;;;;;21.91;100.00;101411.09;2091034;28;20230;-66
2023/08/19 02:56:06;;;;;;;12.57;9.10;;;;;;;22.17;100.00;101443.06;2091169;28;20262;-66
2023/08/19 02:57:06;;;;;;;9.73;7.90;;;;;;;22.13;100.00;101447.34;2092980;28;20275;-65
2023/08/19 02:58:07;;;;;;;10.27;8.23;;;;;;;21.81;100.00;101395.56;2089864;28;20180;-65
2023/08/19 02:59:08;;;;;;;12.73;8.30;;;;;;;22.06;100.00;101442.88;2094897;28;20310;-65
2023/08/19 03:00:09;;;;;;;9.50;7.83;;;;;;;21.10;100.00;101307.84;2087844;28;20235;-66
2023/08/19 03:01:15;;;;;;;10.20;7.33;;;;;;;21.49;100.00;101379.69;2095596;28;20289;-66
2023/08/19 03:02:16;;;;;;;11.43;7.47;;;;;;;21.88;100.00;101442.38;2087906;28;20188;-65
2023/08/19 03:03:17;;;;;;;10.77;7.63;;;;;;;21.92;100.00;101451.41;2080581;28;20181;-66
2023/08/19 03:04:17;;;;;;;10.37;7.73;;;;;;;21.88;100.00;101451.63;2090649;28;20192;-65
2023/08/19 03:05:18;;;;;;;11.20;7.53;;;;;;;21.86;100.00;101444.91;2086549;28;20189;-66
2023/08/19 03:06:18;;;;;;;10.00;7.70;;;;;;;21.82;100.00;101456.41;2083015;28;20661;-66
2023/08/19 03:07:19;;;;;;;11.80;7.57;;;;;;;21.41;100.00;101380.56;2087562;28;20705;-65
2023/08/19 03:08:19;;;;;;;11.67;7.50;;;;;;;21.86;100.00;101459.03;2087808;28;20665;-65
2023/08/19 03:09:20;;;;;;;13.27;7.83;;;;;;;21.87;100.00;101464.19;2087695;28;20169;-66
2023/08/19 03:10:20;;;;;;;11.53;7.83;;;;;;;21.88;100.00;101456.47;2087383;28;20222;-65
2023/08/19 03:11:20;;;;;;;10.93;7.83;;;;;;;21.79;100.00;101442.47;2087628;28;20188;-66
2023/08/19 03:12:21;;;;;;;9.70;8.03;;;;;;;21.87;100.00;101454.91;2081318;28;20242;-66
2023/08/19 03:13:21;;;;;;;18.90;8.60;;;;;;;21.86;100.00;101456.19;2083780;28;20696;-63
2023/08/19 03:14:22;;;;;;;9.03;8.13;;;;;;;21.68;100.00;101431.00;2087571;28;20189;-63
2023/08/19 03:15:22;;;;;;;10.20;8.20;;;;;;;21.86;100.00;101462.59;2087195;28;20169;-63
2023/08/19 03:16:23;;;;;;;8.90;8.00;;;;;;;21.86;100.00;101454.13;2087542;28;20184;-63
2023/08/19 03:17:25;;;;;;;10.00;8.17;;;;;;;21.43;100.00;101397.78;2087753;28;20181;-63
2023/08/19 03:18:29;;;;;;;11.47;8.27;;;;;;;21.83;100.00;101462.81;2087300;28;20560;-63
2023/08/19 03:19:29;;;;;;;12.10;8.17;;;;;;;21.83;100.00;101465.63;2085144;28;20176;-63
2023/08/19 03:20:30;;;;;;;9.60;8.20;;;;;;;21.85;100.00;101457.47;2086859;28;20662;-63
2023/08/19 03:21:30;;;;;;;19.07;9.57;;;;;;;21.83;100.00;101463.59;2087611;28;20654;-63
2023/08/19 03:22:31;;;;;;;15.97;8.30;;;;;;;21.80;100.00;101456.09;2086583;28;20193;-65
2023/08/19 03:23:31;;;;;;;13.07;8.77;;;;;;;21.82;100.00;101466.91;2087408;28;20249;-65
2023/08/19 03:24:32;;;;;;;12.30;8.43;;;;;;;21.83;100.00;101466.41;2086657;28;20711;-66
2023/08/19 03:25:32;;;;;;;11.50;8.00;;;;;;;21.84;100.00;101464.34;2087546;28;20179;-66
2023/08/19 03:26:33;;;;;;;12.60;8.10;;;;;;;21.60;100.00;101438.31;2087712;28;20658;-66
2023/08/19 03:27:33;;;;;;;9.63;8.57;;;;;;;21.79;100.00;101462.22;2087206;28;20228;-65
2023/08/19 03:28:33;;;;;;;9.30;8.40;;;;;;;21.84;100.00;101476.44;2087694;28;20173;-65
2023/08/19 03:29:34;;;;;;;15.47;8.10;;;;;;;21.84;100.00;101470.78;2087263;28;20272;-66
2023/08/19 03:30:34;;;;;;;8.97;7.97;;;;;;;21.86;100.00;101476.72;2083531;28;20638;-66
2023/08/19 03:31:35;;;;;;;12.17;8.40;;;;;;;21.80;100.00;101466.63;2080135;28;20227;-65
2023/08/19 03:32:35;;;;;;;10.87;8.43;;;;;;;21.86;100.00;101481.59;2086372;28;20176;-65
2023/08/19 03:33:40;;;;;;;9.57;8.43;;;;;;;21.67;100.00;101457.66;2079540;28;20203;-65
2023/08/19 03:34:41;;;;;;;10.90;8.57;;;;;;;21.80;100.00;101478.66;2079463;28;20228;-66
2023/08/19 03:35:41;;;;;;;12.07;8.90;;;;;;;21.79;100.00;101473.50;2086247;28;20431;-66
2023/08/19 03:36:42;;;;;;;16.67;9.20;;;;;;;21.81;100.00;101485.09;2086381;28;20219;-66
2023/08/19 03:37:42;;;;;;;9.90;8.30;;;;;;;20.69;100.00;101314.53;2086803;28;20666;-65
2023/08/19 03:38:42;;;;;;;12.10;8.37;;;;;;;21.79;100.00;101479.94;2084732;28;20272;-65
2023/08/19 03:39:43;;;;;;;14.00;8.67;;;;;;;21.75;100.00;101487.81;2084642;28;20204;-65
2023/08/19 03:40:43;;;;;;;14.03;8.23;;;;;;;21.70;100.00;101476.47;2088555;28;20173;-66
2023/08/19 03:41:44;;;;;;;11.00;7.73;;;;;;;21.74;100.00;101483.44;2082400;28;20173;-65
2023/08/19 03:42:44;;;;;;;10.10;8.20;;;;;;;21.73;100.00;101483.94;2090216;28;20211;-66
2023/08/19 03:43:44;;;;;;;9.50;8.10;;;;;;;21.40;100.00;101432.59;2082189;28;20223;-66
2023/08/19 03:44:45;;;;;;;10.53;7.80;;;;;;;21.72;100.00;101488.03;2081790;28;20246;-65
2023/08/19 03:45:45;;;;;;;9.07;8.10;;;;;;;21.69;100.00;101491.84;2081484;28;20196;-66
2023/08/19 03:46:45;;;;;;;8.37;7.53;;;;;;;21.65;100.00;101497.63;2081546;28;20189;-65
2023/08/19 03:47:46;;;;;;;11.67;8.00;;;;;;;21.62;100.00;101492.19;2082059;28;20209;-65
2023/08/19 03:48:46;;;;;;;8.80;7.47;;;;;;;21.68;100.00;101507.16;2081872;28;20188;-66
2023/08/19 03:49:47;;;;;;;8.77;7.77;;;;;;;21.68;100.00;101493.88;2080614;28;20182;-64
2023/08/19 03:50:47;;;;;;;9.73;7.40;;;;;;;21.65;100.00;101500.44;2073809;28;20174;-66
2023/08/19 03:51:48;;;;;;;8.67;7.77;;;;;;;21.67;100.00;101497.16;2080502;28;20225;-65
2023/08/19 03:52:48;;;;;;;11.83;8.20;;;;;;;21.64;100.00;101507.38;2081570;28;20192;-65
2023/08/19 03:53:49;;;;;;;9.43;7.80;;;;;;;21.04;100.00;101408.41;2081623;28;20243;-65
2023/08/19 03:54:50;;;;;;;15.10;8.50;;;;;;;21.63;100.00;101503.00;2081713;28;20663;-66
2023/08/19 03:55:51;;;;;;;8.43;7.30;;;;;;;21.61;100.00;101497.06;2081364;28;20271;-65
2023/08/19 03:56:51;;;;;;;13.03;7.77;;;;;;;21.62;100.00;101498.63;2081433;28;20176;-67
2023/08/19 03:57:52;;;;;;;10.83;7.67;;;;;;;21.63;100.00;101505.81;2081122;28;20181;-65
2023/08/19 03:58:52;;;;;;;12.37;7.37;;;;;;;21.64;100.00;101503.78;2081426;28;20659;-66
2023/08/19 03:59:52;;;;;;;8.27;7.47;;;;;;;21.62;100.00;101509.91;2089352;28;20673;-66
2023/08/19 04:00:53;;;;;;;11.03;7.77;;;;;;;21.64;100.00;101498.16;2089459;28;20270;-65
2023/08/19 04:01:53;;;;;;;8.03;7.27;;;;;;;21.65;100.00;101503.28;2084439;28;20207;-65
2023/08/19 04:02:54;;;;;;;9.60;7.23;;;;;;;21.63;100.00;101505.03;2086152;28;20214;-66
2023/08/19 04:03:54;;;;;;;9.13;7.90;;;;;;;21.50;100.00;101484.81;2086563;28;20185;-65
2023/08/19 04:04:57;;;;;;;9.77;8.07;;;;;;;21.64;100.00;101501.72;2078793;28;20311;-65
2023/08/19 04:05:58;;;;;;;9.33;7.80;;;;;;;21.66;100.00;101502.03;2073868;28;20182;-65
2023/08/19 04:06:58;;;;;;;12.70;8.40;;;;;;;21.33;100.00;101453.50;2081264;28;20701;-64
2023/08/19 04:07:58;;;;;;;13.40;8.27;;;;;;;21.67;100.00;101502.78;2081294;28;20181;-63
2023/08/19 04:08:59;;;;;;;11.53;8.03;;;;;;;21.32;100.00;101454.78;2081197;28;20192;-63
2023/08/19 04:09:59;;;;;;;11.77;8.07;;;;;;;21.66;100.00;101506.88;2087393;28;20192;-66
2023/08/19 04:11:07;;;;;;;11.40;8.10;;;;;;;21.67;100.00;101497.94;2080289;28;20265;-66
2023/08/19 04:12:07;;;;;;;13.20;8.27;;;;;;;21.69;100.00;101508.78;2082458;28;20188;-65
2023/08/19 04:13:08;;;;;;;9.73;8.40;;;;;;;21.70;100.00;101502.63;2086212;28;20239;-66
2023/08/19 04:14:08;;;;;;;10.67;8.37;;;;;;;21.67;100.00;101499.97;2081556;28;20211;-66
2023/08/19 04:15:10;;;;;;;11.23;8.17;;;;;;;21.69;100.00;101506.72;2079786;28;20177;-65
2023/08/19 04:16:10;;;;;;;13.33;8.63;;;;;;;21.72;100.00;101507.78;2072758;28;20181;-65
2023/08/19 04:17:10;;;;;;;14.03;8.63;;;;;;;21.72;100.00;101496.50;2081884;28;20177;-65
2023/08/19 04:18:11;;;;;;;11.70;8.80;;;;;;;21.75;100.00;101501.94;2074392;28;20186;-66
2023/08/19 04:19:11;;;;;;;11.63;8.63;;;;;;;21.76;100.00;101505.53;2079680;28;20227;-65
2023/08/19 04:20:13;;;;;;;11.10;8.83;;;;;;;21.76;100.00;101509.16;2081547;28;20203;-65
2023/08/19 04:21:13;;;;;;;14.43;8.60;;;;;;;21.70;100.00;101499.78;2081440;28;20243;-65
2023/08/19 04:22:15;;;;;;;11.03;8.23;;;;;;;21.81;100.00;101504.84;2081329;28;20192;-65
2023/08/19 04:23:16;;;;;;;12.10;8.53;;;;;;;21.84;100.00;101510.28;2081060;28;20181;-65
2023/08/19 04:24:16;;;;;;;9.53;8.33;;;;;;;21.76;100.00;101514.78;2080730;28;20180;-65
2023/08/19 04:25:17;;;;;;;9.93;8.43;;;;;;;21.85;100.00;101506.19;2073220;28;20174;-65
2023/08/19 04:26:17;;;;;;;11.40;8.27;;;;;;;21.86;100.00;101504.16;2081501;28;20267;-65
2023/08/19 04:27:19;;;;;;;10.37;8.30;;;;;;;21.88;100.00;101507.25;2081301;28;20283;-65
2023/08/19 04:28:19;;;;;;;10.80;9.07;;;;;;;21.91;100.00;101506.31;2081218;28;20185;-65
2023/08/19 04:29:20;;;;;;;11.50;8.53;;;;;;;21.90;100.00;101502.69;2078410;28;20215;-66
2023/08/19 04:30:20;;;;;;;14.87;8.47;;;;;;;21.92;100.00;101508.63;2084906;28;20196;-65
2023/08/19 04:31:21;;;;;;;13.53;8.97;;;;;;;21.94;100.00;101499.66;2085805;28;20245;-65
2023/08/19 04:32:21;;;;;;;12.00;8.40;;;;;;;21.96;100.00;101505.59;2080171;28;20239;-65
2023/08/19 04:33:22;;;;;;;12.90;8.30;;;;;;;21.89;100.00;101491.88;2081273;28;20435;-66
2023/08/19 04:34:22;;;;;;;9.87;8.17;;;;;;;21.99;100.00;101505.41;2073676;28;20204;-65
2023/08/19 04:35:29;;;;;;;9.70;8.37;;;;;;;21.58;100.00;101438.00;2080372;28;20364;-65
2023/08/19 04:36:30;;;;;;;10.17;8.40;;;;;;;21.67;100.00;101455.63;2080682;28;20295;-65
2023/08/19 04:37:30;;;;;;;11.63;8.40;;;;;;;22.03;100.00;101503.16;2074901;28;20194;-66
2023/08/19 04:38:31;;;;;;;9.77;8.40;;;;;;;22.04;100.00;101501.88;2083064;28;20267;-65
2023/08/19 04:39:31;;;;;;;10.73;8.63;;;;;;;22.07;100.00;101512.22;2085824;28;20254;-65
2023/08/19 04:40:32;;;;;;;8.83;8.03;;;;;;;22.08;100.00;101507.31;2084268;28;20188;-66
2023/08/19 04:41:32;;;;;;;10.40;7.70;;;;;;;22.09;100.00;101517.34;2088093;28;20255;-65